Terminal Aerodrome Forecast
Issued by NWS Wilmington, NC

Home | Current Version | Previous Version | Text Only | Print | Product List | Glossary On
Versions: 1 2 3 4 5 6 7 8 9 10 11 12 13 14 15 16 17
000
FTUS42 KILM 072320
TAFILM
TAF
KILM 072320Z 0800/0824 03003KT P6SM SKC
     FM080600 00000KT P6SM BKN025
     FM080900 00000KT P6SM OVC020
     FM081200 28003KT P6SM SCT020=

USA.gov is the U.S. government's official web portal to all federal, state and local government web resources and services.